Time;durP1;ratioP1;P1;durP2;ratioP2;P2;SDS_P1;SDS_P2;PMS_P1;PMS_P2;Temp;Humidity;BMP_temperature;BMP_pressure;BME280_temperature;BME280_humidity;BME280_pressure;Samples;Min_cycle;Max_cycle;Signal;HPM_P1;HPM_P2
2022/08/31 00:05:08;;;;;;;6.47;4.70;;;;;;;19.45;58.07;102007.09;5051023;28;20043;-61
2022/08/31 00:07:34;;;;;;;5.80;4.28;;;;;;;19.44;58.22;102008.00;5051657;28;20070;-60
2022/08/31 00:10:02;;;;;;;5.63;4.55;;;;;;;19.42;58.16;102001.78;5044192;28;20120;-61
2022/08/31 00:12:28;;;;;;;5.70;4.57;;;;;;;19.40;58.80;101998.25;5031804;28;20047;-61
2022/08/31 00:14:53;;;;;;;6.53;4.45;;;;;;;19.34;59.03;101998.25;5046214;28;20840;-61
2022/08/31 00:17:19;;;;;;;5.45;4.35;;;;;;;19.31;59.42;102000.88;5048487;28;20369;-61
2022/08/31 00:19:44;;;;;;;5.57;4.43;;;;;;;19.32;58.52;101997.34;5050674;28;20430;-60
2022/08/31 00:22:10;;;;;;;5.93;4.40;;;;;;;19.28;59.18;101997.31;5049587;28;20052;-61
2022/08/31 00:24:35;;;;;;;6.10;4.50;;;;;;;19.27;59.52;102000.81;5048915;28;20036;-61
2022/08/31 00:27:00;;;;;;;5.13;3.90;;;;;;;19.25;59.42;101994.66;5050831;28;20298;-61
2022/08/31 00:29:26;;;;;;;7.35;4.80;;;;;;;19.22;59.49;101992.00;5048278;28;20017;-61
2022/08/31 00:31:51;;;;;;;5.72;4.20;;;;;;;19.16;60.15;101991.06;5050318;28;20056;-61
2022/08/31 00:34:17;;;;;;;6.10;4.47;;;;;;;19.13;60.58;101997.22;5049062;28;20279;-61
2022/08/31 00:36:42;;;;;;;4.95;3.95;;;;;;;19.14;59.89;101985.78;5041883;28;20108;-61
2022/08/31 00:39:07;;;;;;;5.97;4.20;;;;;;;19.14;60.11;101999.00;5046001;28;20032;-60
2022/08/31 00:41:35;;;;;;;5.93;4.22;;;;;;;19.14;59.75;102006.91;5049626;28;20061;-61
2022/08/31 00:44:04;;;;;;;7.07;4.43;;;;;;;19.08;60.32;101994.53;5049457;28;20090;-61
2022/08/31 00:46:36;;;;;;;6.43;4.30;;;;;;;19.06;60.42;101992.75;5050168;28;20024;-60
2022/08/31 00:49:03;;;;;;;6.55;4.20;;;;;;;19.02;60.58;101993.63;5048798;28;20033;-60
2022/08/31 00:51:32;;;;;;;5.25;3.72;;;;;;;19.00;60.28;101990.09;5050148;28;20033;-61
2022/08/31 00:53:59;;;;;;;6.88;4.15;;;;;;;18.96;61.06;101993.56;5049962;28;20044;-61
2022/08/31 00:56:25;;;;;;;5.57;3.90;;;;;;;18.94;60.54;101997.09;5049974;28;20974;-61
2022/08/31 00:58:51;;;;;;;5.50;3.53;;;;;;;18.93;60.84;101999.75;5049127;28;20029;-61
2022/08/31 01:01:19;;;;;;;6.35;4.20;;;;;;;18.86;61.00;101995.25;5049710;28;20044;-61
2022/08/31 01:03:46;;;;;;;4.85;3.40;;;;;;;18.87;60.88;101995.28;5036215;28;20061;-61
2022/08/31 01:06:12;;;;;;;4.93;3.58;;;;;;;18.84;61.18;101992.59;5049813;28;20109;-61
2022/08/31 01:08:37;;;;;;;6.43;3.72;;;;;;;18.84;60.95;101999.63;5049865;28;20033;-61
2022/08/31 01:11:03;;;;;;;4.97;3.45;;;;;;;18.82;60.99;102002.25;5049778;28;20036;-60
2022/08/31 01:13:30;;;;;;;5.35;3.35;;;;;;;18.80;61.13;101993.44;5048453;28;20036;-60
2022/08/31 01:16:02;;;;;;;5.82;3.70;;;;;;;18.73;61.46;101986.34;5048601;28;20057;-61
2022/08/31 01:18:28;;;;;;;6.60;3.50;;;;;;;18.72;61.64;101989.84;5048828;28;20131;-61
2022/08/31 01:20:56;;;;;;;4.95;3.50;;;;;;;18.69;61.50;101990.69;5048799;28;20021;-61
2022/08/31 01:23:30;;;;;;;5.90;3.38;;;;;;;18.71;61.22;101994.25;5049408;28;20032;-61
2022/08/31 01:25:57;;;;;;;6.75;3.75;;;;;;;18.68;61.46;101988.91;5038570;28;20040;-61
2022/08/31 01:28:23;;;;;;;4.78;3.20;;;;;;;18.67;61.40;101986.28;5049349;28;20060;-62
2022/08/31 01:31:07;;;;;;;4.82;3.50;;;;;;;18.67;60.88;101986.28;5049282;28;20036;-61
2022/08/31 01:33:36;;;;;;;4.30;3.22;;;;;;;18.64;61.74;101983.59;5047875;28;20025;-60
2022/08/31 01:36:02;;;;;;;;;;;;;;;18.70;60.02;101988.97;5049087;28;20032;-61
2022/08/31 01:38:28;;;;;;;4.88;3.40;;;;;;;18.62;61.60;101988.00;5049215;28;19912;-61
2022/08/31 01:41:00;;;;;;;7.15;3.60;;;;;;;18.56;61.68;101994.09;5048854;28;20085;-60
2022/08/31 01:43:26;;;;;;;5.22;3.53;;;;;;;18.54;61.96;101994.09;5049055;28;20045;-60
2022/08/31 01:45:51;;;;;;;6.15;3.70;;;;;;;18.49;61.92;101990.53;5048369;28;20024;-61
2022/08/31 01:48:17;;;;;;;4.75;3.80;;;;;;;18.45;62.24;101991.38;5049098;28;20063;-61
2022/08/31 01:50:43;;;;;;;5.47;3.78;;;;;;;18.44;62.39;101992.25;5047907;28;20096;-61
2022/08/31 01:53:09;;;;;;;7.13;3.53;;;;;;;18.42;62.14;101991.34;5048020;28;20039;-61
2022/08/31 01:55:35;;;;;;;4.70;3.45;;;;;;;18.40;62.33;101995.72;5049875;28;20029;-61
2022/08/31 01:58:00;;;;;;;5.53;3.78;;;;;;;18.39;62.27;101993.94;5049149;28;20028;-61
2022/08/31 02:00:27;;;;;;;5.38;3.90;;;;;;;18.37;62.30;101998.34;5047962;28;20035;-62
2022/08/31 02:02:54;;;;;;;4.93;3.70;;;;;;;18.37;62.17;101993.06;5047503;28;20551;-61
2022/08/31 02:05:19;;;;;;;4.60;3.40;;;;;;;18.34;62.39;101991.28;5045958;28;20028;-61
2022/08/31 02:07:45;;;;;;;5.03;3.65;;;;;;;18.33;62.36;101996.53;5049876;28;20157;-61
2022/08/31 02:10:10;;;;;;;5.60;3.80;;;;;;;18.31;62.92;101999.16;5048881;28;20094;-61
2022/08/31 02:12:36;;;;;;;6.55;3.90;;;;;;;18.30;62.67;102002.66;5048674;28;20122;-62
2022/08/31 02:15:01;;;;;;;5.60;3.60;;;;;;;18.29;62.50;102000.88;5049092;28;20464;-61
2022/08/31 02:17:26;;;;;;;5.05;3.70;;;;;;;18.25;62.98;101999.97;5048457;28;20036;-62
2022/08/31 02:19:52;;;;;;;4.82;3.75;;;;;;;18.24;62.53;102003.47;5047440;28;20036;-61
2022/08/31 02:22:17;;;;;;;5.68;3.90;;;;;;;18.23;63.15;101995.53;5047915;28;20438;-61
2022/08/31 02:24:42;;;;;;;8.02;4.30;;;;;;;18.21;62.77;101999.94;5048633;28;20052;-61
2022/08/31 02:27:08;;;;;;;6.47;3.65;;;;;;;18.17;62.88;102001.63;5048752;28;20044;-62
2022/08/31 02:29:33;;;;;;;6.03;3.90;;;;;;;18.12;62.70;102003.38;5048537;28;20040;-62
2022/08/31 02:31:59;;;;;;;5.53;3.95;;;;;;;18.12;62.90;102008.63;5049614;28;20538;-62
2022/08/31 02:34:24;;;;;;;6.45;4.00;;;;;;;18.09;62.95;101998.06;5047378;28;20025;-62
2022/08/31 02:36:50;;;;;;;5.10;3.72;;;;;;;18.08;63.13;102009.47;5049131;28;20029;-62
2022/08/31 02:39:15;;;;;;;5.75;3.90;;;;;;;18.06;62.72;102003.28;5048087;28;20025;-61
2022/08/31 02:41:41;;;;;;;7.15;4.10;;;;;;;18.04;63.33;102011.16;5048304;28;21812;-62
2022/08/31 02:44:06;;;;;;;4.63;3.70;;;;;;;18.04;63.27;102007.66;5055415;28;20083;-62
2022/08/31 02:46:31;;;;;;;5.60;3.83;;;;;;;18.01;62.54;102005.88;5051651;28;20475;-61
2022/08/31 02:48:57;;;;;;;5.53;4.10;;;;;;;18.01;62.33;101999.72;5052561;28;20037;-61
2022/08/31 02:51:22;;;;;;;4.95;3.97;;;;;;;17.98;63.22;102005.84;5049074;28;20025;-60
2022/08/31 02:53:48;;;;;;;6.20;4.38;;;;;;;17.94;63.35;102011.94;5047486;28;20454;-62
2022/08/31 02:56:14;;;;;;;5.57;4.18;;;;;;;17.92;62.75;102004.91;5052994;28;20488;-61
2022/08/31 02:58:40;;;;;;;5.10;4.07;;;;;;;17.87;63.14;101997.78;5047862;28;20037;-61
2022/08/31 03:01:05;;;;;;;5.63;4.28;;;;;;;17.89;62.87;101996.03;5049321;28;20480;-61
2022/08/31 03:03:32;;;;;;;6.00;4.10;;;;;;;17.87;63.30;101996.88;5051160;28;20024;-61
2022/08/31 03:05:57;;;;;;;6.63;4.18;;;;;;;17.84;63.20;102000.38;5052176;28;20037;-61
2022/08/31 03:08:23;;;;;;;6.45;4.00;;;;;;;17.85;62.91;101995.97;5051713;28;20090;-61
2022/08/31 03:10:48;;;;;;;5.03;4.07;;;;;;;17.81;63.18;102002.06;5052387;28;20104;-62
2022/08/31 03:13:13;;;;;;;6.28;4.18;;;;;;;17.76;63.56;101994.13;5051733;28;20395;-62
2022/08/31 03:15:39;;;;;;;5.60;4.00;;;;;;;17.72;63.47;101997.56;5052047;28;20036;-61
2022/08/31 03:18:04;;;;;;;5.57;3.90;;;;;;;17.70;63.39;102004.59;5050955;28;20404;-61
2022/08/31 03:20:30;;;;;;;5.55;4.20;;;;;;;17.66;63.92;101995.75;5051290;28;20108;-61
2022/08/31 03:22:55;;;;;;;5.78;3.90;;;;;;;17.62;63.78;102000.97;5049065;28;20094;-60
2022/08/31 03:25:21;;;;;;;6.82;3.78;;;;;;;17.60;63.45;101998.31;5050986;28;20510;-61
2022/08/31 03:27:47;;;;;;;5.40;4.10;;;;;;;17.59;64.16;101998.28;5052161;28;20029;-61
2022/08/31 03:30:15;;;;;;;5.95;4.10;;;;;;;17.55;63.36;102000.91;5051743;28;20029;-61
2022/08/31 03:32:41;;;;;;;5.35;4.10;;;;;;;17.50;64.18;101997.31;5052515;28;20032;-61
2022/08/31 03:35:07;;;;;;;5.90;3.83;;;;;;;17.50;64.38;102002.56;5051308;28;20036;-60
2022/08/31 03:37:33;;;;;;;5.68;3.90;;;;;;;17.47;64.20;102001.66;5050983;28;20033;-61
2022/08/31 03:39:58;;;;;;;5.93;4.10;;;;;;;17.45;64.21;102000.72;5040256;28;20040;-61
2022/08/31 03:42:24;;;;;;;5.65;4.13;;;;;;;17.42;64.00;102008.59;5048831;28;20099;-61
2022/08/31 03:44:50;;;;;;;5.57;3.70;;;;;;;17.42;63.64;102004.19;5039448;28;20061;-60
2022/08/31 03:47:15;;;;;;;5.35;3.90;;;;;;;17.40;64.03;102008.56;5050060;28;20100;-60
2022/08/31 03:49:42;;;;;;;6.15;4.05;;;;;;;17.37;64.23;102008.53;5041554;28;20104;-61
2022/08/31 03:52:07;;;;;;;7.32;4.20;;;;;;;17.35;63.76;102012.88;5046866;28;20512;-61
2022/08/31 03:54:33;;;;;;;5.57;4.15;;;;;;;17.33;63.51;102004.97;5048454;28;20032;-61
2022/08/31 03:56:58;;;;;;;5.97;4.28;;;;;;;17.30;64.10;102009.31;5050756;28;20044;-60
2022/08/31 03:59:24;;;;;;;7.18;4.20;;;;;;;17.29;63.46;102013.72;5049818;28;20028;-60
2022/08/31 04:01:49;;;;;;;5.82;4.57;;;;;;;17.27;63.60;102006.63;5051085;28;20041;-61
2022/08/31 04:04:14;;;;;;;5.30;3.92;;;;;;;17.26;63.90;102004.88;5049725;28;20104;-61
2022/08/31 04:06:42;;;;;;;6.57;3.95;;;;;;;17.22;63.78;102009.22;5049863;28;20033;-61
2022/08/31 04:09:07;;;;;;;5.30;4.03;;;;;;;17.17;63.95;102006.50;5049952;28;20059;-61
2022/08/31 04:11:33;;;;;;;5.68;3.70;;;;;;;17.14;63.99;102013.47;5050431;28;20108;-61
2022/08/31 04:13:58;;;;;;;7.30;4.38;;;;;;;17.12;63.71;102005.56;5050990;28;20033;-61
2022/08/31 04:16:25;;;;;;;5.63;3.60;;;;;;;17.06;63.99;102013.38;5051518;28;20032;-62
2022/08/31 04:18:50;;;;;;;5.25;3.75;;;;;;;17.04;63.96;102007.16;5050604;28;20033;-62
2022/08/31 04:21:22;;;;;;;5.28;3.58;;;;;;;16.98;64.61;102013.22;5050042;28;20403;-61
2022/08/31 04:23:49;;;;;;;5.13;3.92;;;;;;;16.95;64.02;102010.53;5050451;28;20126;-61
2022/08/31 04:26:28;;;;;;;5.35;3.67;;;;;;;16.91;64.49;102006.09;5050600;28;20029;-61
2022/08/31 04:28:55;;;;;;;5.22;3.70;;;;;;;16.92;63.75;102012.25;5038676;28;20033;-61
2022/08/31 04:31:22;;;;;;;6.35;3.50;;;;;;;16.90;63.99;102019.22;5050435;28;20285;-62
2022/08/31 04:33:48;;;;;;;5.32;3.50;;;;;;;16.89;64.31;102017.44;5046755;28;20486;-61
2022/08/31 04:36:17;;;;;;;5.07;3.50;;;;;;;16.85;63.77;102020.00;5050669;28;20420;-61
2022/08/31 04:38:48;;;;;;;5.30;3.60;;;;;;;16.83;64.22;102020.84;5050142;28;20102;-61
2022/08/31 04:41:16;;;;;;;5.47;3.30;;;;;;;16.81;64.16;102031.34;5050294;28;20037;-62
2022/08/31 04:43:47;;;;;;;5.13;3.58;;;;;;;16.79;63.69;102021.66;5049139;28;20041;-61
2022/08/31 04:46:14;;;;;;;4.63;3.13;;;;;;;16.75;63.87;102015.44;5050059;28;20029;-61
2022/08/31 04:48:39;;;;;;;6.13;3.30;;;;;;;16.69;64.36;102018.84;5049372;28;20113;-61
2022/08/31 04:51:13;;;;;;;5.55;3.53;;;;;;;16.69;63.76;102020.63;5050154;28;20108;-61
2022/08/31 04:53:39;;;;;;;5.93;3.30;;;;;;;16.67;64.25;102017.97;5046631;28;20033;-62
2022/08/31 04:56:08;;;;;;;6.57;3.38;;;;;;;16.66;63.80;102031.09;5050007;28;20495;-61
2022/08/31 04:58:33;;;;;;;;;;;;;;;16.74;62.80;102031.22;5050227;28;20057;-62
2022/08/31 05:00:59;;;;;;;5.28;3.67;;;;;;;16.66;63.93;102036.34;5049867;28;19955;-61
2022/08/31 05:03:24;;;;;;;5.40;3.55;;;;;;;16.63;63.37;102031.03;5048023;28;20049;-62
2022/08/31 05:05:51;;;;;;;6.18;3.67;;;;;;;16.60;63.84;102036.25;5049950;28;20057;-62
2022/08/31 05:08:17;;;;;;;5.30;3.10;;;;;;;16.56;63.95;102034.41;5049433;28;21638;-61
2022/08/31 05:10:43;;;;;;;5.38;3.25;;;;;;;16.55;64.35;102032.63;5049726;28;20539;-61
2022/08/31 05:13:08;;;;;;;5.53;3.45;;;;;;;16.49;64.05;102034.28;5031637;28;20107;-61
2022/08/31 05:15:42;;;;;;;5.80;3.40;;;;;;;16.49;63.93;102029.03;5049823;28;20087;-61
2022/08/31 05:18:08;;;;;;;4.47;3.15;;;;;;;16.45;64.10;102032.50;5049408;28;20035;-61
2022/08/31 05:20:33;;;;;;;5.53;3.28;;;;;;;16.42;64.31;102040.28;5049760;28;20049;-61
2022/08/31 05:22:59;;;;;;;5.00;3.30;;;;;;;16.39;64.10;102032.34;5049160;28;20056;-61
2022/08/31 05:25:24;;;;;;;5.38;3.50;;;;;;;16.38;64.19;102034.94;5048571;28;20027;-61
2022/08/31 05:27:49;;;;;;;4.38;2.92;;;;;;;16.37;63.73;102036.72;5042471;28;20033;-62
2022/08/31 05:30:15;;;;;;;5.30;2.90;;;;;;;16.35;63.52;102046.28;5040106;28;20044;-62
2022/08/31 05:32:40;;;;;;;3.97;2.70;;;;;;;16.32;63.48;102046.25;5045066;28;20072;-61
2022/08/31 05:35:06;;;;;;;4.63;3.08;;;;;;;16.29;63.48;102043.56;5049217;28;20107;-61
2022/08/31 05:37:31;;;;;;;4.65;2.83;;;;;;;16.27;63.64;102038.28;5048379;28;20032;-62
2022/08/31 05:39:57;;;;;;;7.72;3.40;;;;;;;16.23;64.55;102044.31;5060505;28;20033;-60
2022/08/31 05:42:22;;;;;;;4.57;2.70;;;;;;;16.24;64.17;102043.47;5047866;28;20041;-61
2022/08/31 05:44:47;;;;;;;4.93;2.55;;;;;;;16.22;63.91;102049.56;5049273;28;20025;-62
2022/08/31 05:47:13;;;;;;;4.70;2.60;;;;;;;16.19;63.69;102046.88;5050093;28;20017;-62
2022/08/31 05:49:42;;;;;;;5.22;2.90;;;;;;;16.17;63.64;102052.97;5049503;28;20414;-62
2022/08/31 05:52:07;;;;;;;4.07;2.40;;;;;;;16.16;63.84;102043.34;5050147;28;20024;-62
2022/08/31 05:54:34;;;;;;;6.05;2.50;;;;;;;16.13;63.52;102045.91;5047504;28;20044;-62
2022/08/31 05:57:00;;;;;;;4.47;2.50;;;;;;;16.12;63.76;102043.22;5048917;28;20068;-61
2022/08/31 05:59:25;;;;;;;4.10;2.67;;;;;;;16.12;63.58;102051.09;5037961;28;20033;-62
2022/08/31 06:01:51;;;;;;;4.97;3.00;;;;;;;16.04;63.44;102052.72;5048842;28;20499;-62
2022/08/31 06:04:16;;;;;;;5.18;2.60;;;;;;;16.04;63.57;102047.47;5045508;28;20044;-61
2022/08/31 06:06:42;;;;;;;4.35;2.33;;;;;;;16.04;63.60;102053.59;5038471;28;20037;-62
2022/08/31 06:09:07;;;;;;;5.82;2.78;;;;;;;16.06;63.76;102053.63;5045345;28;20536;-62
2022/08/31 06:11:34;;;;;;;5.05;2.63;;;;;;;16.06;63.62;102059.78;5043887;28;20248;-62
2022/08/31 06:14:02;;;;;;;4.97;2.58;;;;;;;16.08;63.73;102062.44;5042541;28;20381;-61
2022/08/31 06:16:29;;;;;;;6.50;2.90;;;;;;;16.07;63.61;102060.66;5029925;28;20032;-62
2022/08/31 06:18:57;;;;;;;5.88;2.70;;;;;;;16.06;63.90;102064.13;5045401;28;20037;-62
2022/08/31 06:21:25;;;;;;;7.38;2.97;;;;;;;16.06;63.45;102070.31;5046795;28;20052;-62
2022/08/31 06:23:52;;;;;;;4.85;2.75;;;;;;;16.06;63.62;102069.41;5044206;28;20056;-62
2022/08/31 06:26:19;;;;;;;4.57;2.78;;;;;;;16.07;64.23;102074.69;5051297;28;20029;-62
2022/08/31 06:28:50;;;;;;;9.02;2.80;;;;;;;16.07;63.47;102066.78;5044484;28;20079;-62
2022/08/31 06:31:20;;;;;;;7.07;2.85;;;;;;;16.08;63.74;102073.84;5049349;28;20064;-61
2022/08/31 06:33:46;;;;;;;4.60;2.38;;;;;;;16.10;63.85;102071.25;5029138;28;21056;-61
2022/08/31 06:36:14;;;;;;;5.65;2.70;;;;;;;16.11;63.56;102076.53;5046323;28;20033;-59
2022/08/31 06:38:40;;;;;;;5.83;3.07;;;;;;;16.12;63.34;102080.94;5044874;28;20025;-62
2022/08/31 06:41:14;;;;;;;4.72;2.60;;;;;;;16.14;64.00;102086.22;5048716;28;20029;-62
2022/08/31 06:43:40;;;;;;;5.70;2.40;;;;;;;16.16;64.20;102088.03;5050510;28;20049;-62
2022/08/31 06:46:06;;;;;;;3.85;2.40;;;;;;;16.19;63.04;102087.19;5044785;28;20020;-62
2022/08/31 06:48:33;;;;;;;4.70;2.70;;;;;;;16.20;63.76;102083.72;5048666;28;20129;-62
2022/08/31 06:50:58;;;;;;;4.28;2.60;;;;;;;16.24;63.37;102089.94;5048780;28;20094;-62
2022/08/31 06:53:24;;;;;;;6.40;2.90;;;;;;;16.25;63.25;102091.69;5049227;28;20025;-63
2022/08/31 06:55:49;;;;;;;4.45;2.65;;;;;;;16.26;63.29;102093.47;5050782;28;20103;-62
2022/08/31 06:58:14;;;;;;;4.40;2.88;;;;;;;16.29;62.66;102093.53;5051955;28;20061;-62
2022/08/31 07:00:40;;;;;;;6.10;2.80;;;;;;;16.30;62.73;102095.31;5046234;28;20009;-62
2022/08/31 07:03:21;;;;;;;4.47;2.47;;;;;;;16.31;62.42;102099.72;5051160;28;20035;-62
2022/08/31 07:05:48;;;;;;;4.03;2.60;;;;;;;16.33;62.69;102105.88;5040121;28;20037;-60
2022/08/31 07:08:13;;;;;;;4.32;2.60;;;;;;;16.32;62.75;102098.84;5043631;28;20481;-62
2022/08/31 07:10:39;;;;;;;5.45;2.65;;;;;;;16.34;62.82;102094.53;5045569;28;20060;-62
2022/08/31 07:13:04;;;;;;;3.92;2.30;;;;;;;16.37;62.89;102101.59;5042809;28;20095;-62
2022/08/31 07:15:29;;;;;;;5.53;2.50;;;;;;;16.38;62.60;102098.09;5044694;28;20068;-62
2022/08/31 07:17:55;;;;;;;4.82;2.53;;;;;;;16.40;62.35;102102.53;5039091;28;20025;-62
2022/08/31 07:20:20;;;;;;;5.25;2.30;;;;;;;16.41;61.36;102104.31;5040451;28;20025;-62
2022/08/31 07:22:45;;;;;;;5.28;2.80;;;;;;;16.43;61.82;102099.94;5044227;28;20446;-61
2022/08/31 07:25:11;;;;;;;4.75;2.67;;;;;;;16.44;61.83;102093.84;5046658;28;20098;-61
2022/08/31 07:27:36;;;;;;;5.22;2.90;;;;;;;16.48;62.49;102100.94;5042697;28;20604;-62
2022/08/31 07:30:03;;;;;;;5.88;2.75;;;;;;;16.51;62.20;102107.97;5042480;28;20052;-61
2022/08/31 07:32:28;;;;;;;6.45;2.80;;;;;;;16.55;61.68;102098.41;5031370;28;20056;-62
2022/08/31 07:34:53;;;;;;;4.82;2.70;;;;;;;16.58;61.88;102104.63;5015788;28;20112;-61
2022/08/31 07:42:47;;;;;;;4.68;2.78;;;;;;;16.69;62.00;102096.94;5030651;28;20048;-62
2022/08/31 07:45:23;;;;;;;5.18;2.72;;;;;;;16.73;62.06;102096.13;5039290;28;20025;-62
2022/08/31 07:47:53;;;;;;;4.93;2.55;;;;;;;16.78;62.09;102093.59;5041974;28;20683;-60
2022/08/31 07:50:20;;;;;;;4.30;2.90;;;;;;;16.84;62.45;102098.94;5036441;28;20028;-62
2022/08/31 07:52:52;;;;;;;6.55;2.83;;;;;;;16.89;62.54;102097.34;5037005;28;20039;-62
2022/08/31 07:55:20;;;;;;;5.53;2.67;;;;;;;16.94;62.60;102100.03;5038968;28;20028;-62
2022/08/31 07:57:45;;;;;;;4.15;2.80;;;;;;;16.98;62.23;102096.59;5035888;28;20033;-61
2022/08/31 08:00:18;;;;;;;5.22;3.00;;;;;;;17.02;62.95;102098.44;5035781;28;20429;-61
2022/08/31 08:02:46;;;;;;;5.82;2.88;;;;;;;17.09;62.29;102105.59;5039872;28;20404;-61
2022/08/31 08:05:21;;;;;;;5.90;2.40;;;;;;;17.15;62.13;102108.31;5056624;28;20025;-59
2022/08/31 08:07:53;;;;;;;4.70;2.90;;;;;;;17.21;62.02;102105.75;5044683;28;20099;-61
2022/08/31 08:10:22;;;;;;;5.93;2.90;;;;;;;17.28;63.01;102108.50;5044386;28;20126;-61
2022/08/31 08:12:59;;;;;;;5.32;3.05;;;;;;;17.34;62.18;102111.25;5039634;28;20032;-61
2022/08/31 08:15:25;;;;;;;9.85;4.57;;;;;;;17.41;61.89;102104.31;5039957;28;20048;-61
2022/08/31 08:17:51;;;;;;;7.30;3.25;;;;;;;17.46;61.46;102111.41;5038318;28;20405;-61
2022/08/31 08:20:17;;;;;;;5.72;3.00;;;;;;;17.53;61.25;102112.41;5044983;28;20028;-62
2022/08/31 08:22:43;;;;;;;4.07;2.92;;;;;;;17.60;61.66;102116.00;5041663;28;20025;-61
2022/08/31 08:25:10;;;;;;;6.30;3.20;;;;;;;17.66;61.34;102117.00;5048934;28;20032;-61
2022/08/31 08:27:36;;;;;;;5.82;3.25;;;;;;;17.75;62.34;102123.28;5044583;28;20082;-61
2022/08/31 08:30:03;;;;;;;5.45;3.50;;;;;;;17.81;61.28;102118.09;5049714;28;20032;-62
2022/08/31 08:32:30;;;;;;;5.78;3.30;;;;;;;17.89;61.54;102121.72;5039479;28;20556;-61
2022/08/31 08:34:56;;;;;;;5.88;3.58;;;;;;;18.00;62.19;102113.97;5049253;28;20078;-61
2022/08/31 08:37:21;;;;;;;5.93;3.50;;;;;;;18.08;61.11;102121.13;5047605;28;20040;-61
2022/08/31 08:39:47;;;;;;;6.28;3.35;;;;;;;18.15;61.39;102119.47;5051279;28;20020;-62
2022/08/31 08:42:14;;;;;;;7.00;3.63;;;;;;;18.22;60.66;102125.72;5032628;28;20124;-61
2022/08/31 08:44:41;;;;;;;5.20;3.10;;;;;;;18.28;60.81;102127.50;5050020;28;20035;-61
2022/08/31 08:47:17;;;;;;;5.85;3.40;;;;;;;18.35;60.53;102129.34;5051179;28;20024;-61
2022/08/31 08:49:49;;;;;;;5.80;3.53;;;;;;;18.39;60.74;102129.44;5051246;28;20025;-61
2022/08/31 08:52:26;;;;;;;6.88;3.50;;;;;;;18.46;60.81;102129.50;5032243;28;20078;-60
2022/08/31 08:54:54;;;;;;;6.50;3.65;;;;;;;18.54;61.04;102127.84;5049843;28;20082;-61
2022/08/31 08:57:29;;;;;;;7.65;3.90;;;;;;;18.61;60.69;102132.31;5050753;28;20025;-61
2022/08/31 08:59:57;;;;;;;5.28;3.63;;;;;;;18.70;60.66;102128.91;5050946;28;20043;-61
2022/08/31 09:02:47;;;;;;;7.93;3.83;;;;;;;18.83;60.47;102129.88;5040102;28;20033;-61
2022/08/31 09:05:44;;;;;;;8.43;4.40;;;;;;;18.93;60.12;102121.25;5011193;28;20048;-61
2022/08/31 09:08:36;;;;;;;8.48;4.13;;;;;;;19.05;59.96;102117.81;5047632;28;20036;-61
2022/08/31 09:11:23;;;;;;;11.05;4.20;;;;;;;19.16;59.25;102108.22;5048057;28;20075;-61
2022/08/31 09:14:14;;;;;;;6.22;4.47;;;;;;;19.29;59.45;102109.19;5047446;28;20035;-61
2022/08/31 09:17:02;;;;;;;9.30;4.05;;;;;;;19.41;58.18;102108.41;5048453;28;20033;-60
2022/08/31 09:19:56;;;;;;;7.30;4.65;;;;;;;19.54;59.01;102110.25;5038277;28;20022;-61
2022/08/31 09:22:13;;;;;;;7.32;4.88;;;;;;;19.64;57.69;102105.94;5042551;28;20075;-61
2022/08/31 09:24:38;;;;;;;8.32;4.60;;;;;;;19.73;58.54;102107.75;5038606;28;20037;-60
2022/08/31 09:27:19;;;;;;;8.52;4.55;;;;;;;19.84;58.48;102107.81;5050465;28;20016;-60
2022/08/31 09:29:54;;;;;;;8.20;4.43;;;;;;;19.91;58.10;102107.84;5050137;28;20024;-60
2022/08/31 09:32:30;;;;;;;9.05;5.68;;;;;;;20.03;58.00;102103.50;5049206;28;20029;-60
2022/08/31 09:35:07;;;;;;;11.27;7.28;;;;;;;20.14;58.20;102112.38;5054562;28;20086;-60
2022/08/31 09:37:45;;;;;;;8.63;4.70;;;;;;;20.28;58.54;102104.50;5055558;28;20024;-61
2022/08/31 09:40:17;;;;;;;7.70;4.97;;;;;;;20.40;57.55;102111.59;5058795;28;20029;-61
2022/08/31 09:42:46;;;;;;;8.32;4.95;;;;;;;20.52;57.57;102108.97;5060532;28;20044;-61
2022/08/31 09:45:25;;;;;;;7.93;4.82;;;;;;;20.63;56.36;102106.34;5058295;28;20030;-60
2022/08/31 09:47:54;;;;;;;8.73;4.90;;;;;;;20.76;56.90;102107.28;5042427;28;20025;-58
2022/08/31 09:50:24;;;;;;;;;;;;;;;20.88;57.17;102109.94;5044213;28;20024;-60
2022/08/31 09:55:34;;;;;;;10.45;5.55;;;;;;;20.98;55.81;102117.00;5049774;28;20028;-61
2022/08/31 09:58:09;;;;;;;8.75;5.53;;;;;;;21.07;55.73;102120.56;5043458;28;20025;-60
2022/08/31 10:00:45;;;;;;;9.55;5.50;;;;;;;21.18;56.37;102113.50;5047331;28;20036;-61
2022/08/31 10:03:23;;;;;;;8.55;5.32;;;;;;;21.24;55.73;102110.84;5040963;28;20029;-61
2022/08/31 10:05:50;;;;;;;8.05;5.20;;;;;;;21.24;55.70;102113.50;5043806;28;20260;-60
2022/08/31 10:08:19;;;;;;;10.43;5.50;;;;;;;21.31;55.42;102096.69;5037644;28;20033;-61
2022/08/31 10:10:48;;;;;;;9.40;6.30;;;;;;;21.36;55.56;102097.59;5036500;28;20021;-60
2022/08/31 10:13:22;;;;;;;10.63;5.40;;;;;;;21.40;55.47;102098.44;5049781;28;20456;-61
2022/08/31 10:16:24;;;;;;;12.32;5.63;;;;;;;21.46;55.77;102098.44;5030150;28;20530;-61
2022/08/31 10:19:01;;;;;;;7.75;5.60;;;;;;;21.52;55.14;102097.56;5029187;28;20118;-61
2022/08/31 10:21:42;;;;;;;8.88;6.20;;;;;;;21.56;55.30;102086.06;5028877;28;20033;-60
2022/08/31 10:24:27;;;;;;;10.30;6.07;;;;;;;21.68;54.60;102090.47;5045750;28;20064;-60
2022/08/31 10:27:05;;;;;;;11.38;6.00;;;;;;;21.78;54.94;102091.31;5040912;28;20508;-60
2022/08/31 10:29:44;;;;;;;8.90;6.13;;;;;;;21.87;53.86;102086.00;5037200;28;20088;-59
2022/08/31 10:32:26;;;;;;;13.50;6.80;;;;;;;21.95;53.74;102089.50;5045036;28;20396;-60
2022/08/31 10:35:04;;;;;;;10.10;6.45;;;;;;;22.04;53.09;102089.47;5046415;28;20033;-60
2022/08/31 10:37:53;;;;;;;9.60;5.80;;;;;;;22.16;54.08;102096.50;5029972;28;20472;-60
2022/08/31 10:40:28;;;;;;;10.75;6.18;;;;;;;22.26;53.34;102085.81;5045983;28;20029;-60
2022/08/31 10:43:16;;;;;;;7.78;5.90;;;;;;;22.34;53.97;102090.22;5032312;28;20041;-60
2022/08/31 10:45:47;;;;;;;8.10;6.18;;;;;;;22.39;53.23;102085.78;5048259;28;20045;-59
2022/08/31 10:48:15;;;;;;;10.65;6.20;;;;;;;22.53;52.83;102083.03;5031600;28;20013;-60
2022/08/31 10:51:04;;;;;;;9.35;5.97;;;;;;;22.66;54.17;102077.66;5048200;28;20968;-60
2022/08/31 10:53:33;;;;;;;10.13;6.72;;;;;;;22.70;52.55;102077.59;5049234;28;20020;-59
2022/08/31 10:56:13;;;;;;;9.63;6.22;;;;;;;22.79;51.75;102075.78;5049075;28;20115;-59
2022/08/31 10:58:59;;;;;;;11.30;6.10;;;;;;;22.88;53.44;102073.94;5033575;28;20076;-60
2022/08/31 11:01:43;;;;;;;11.32;6.80;;;;;;;22.98;52.54;102085.34;5046672;28;20531;-59
2022/08/31 11:04:47;;;;;;;8.57;5.97;;;;;;;23.11;52.65;102079.97;5049255;28;20020;-60
2022/08/31 11:07:51;;;;;;;11.07;6.65;;;;;;;23.18;52.05;102079.03;5037709;28;20485;-61
2022/08/31 11:10:22;;;;;;;9.48;6.28;;;;;;;23.25;52.03;102080.75;5038357;28;20033;-60
2022/08/31 11:12:57;;;;;;;12.43;6.22;;;;;;;23.31;52.18;102067.38;5050937;28;20090;-60
2022/08/31 11:15:27;;;;;;;13.77;6.22;;;;;;;23.37;51.53;102061.97;5052786;28;20027;-61
2022/08/31 11:18:11;;;;;;;13.50;6.68;;;;;;;23.38;51.39;102065.53;5052938;28;20166;-60
2022/08/31 11:21:07;;;;;;;23.55;6.80;;;;;;;23.36;51.49;102075.28;5051927;28;20108;-61
2022/08/31 11:24:14;;;;;;;17.48;6.82;;;;;;;23.36;51.80;102069.97;5052623;28;20520;-61
2022/08/31 11:26:52;;;;;;;12.88;7.15;;;;;;;23.42;51.02;102076.13;5053144;28;20024;-60
2022/08/31 11:29:40;;;;;;;15.73;6.45;;;;;;;23.50;51.41;102072.50;5052772;28;20163;-61
2022/08/31 11:32:50;;;;;;;12.15;6.68;;;;;;;23.57;51.64;102063.56;5050316;28;20032;-61
2022/08/31 11:36:04;;;;;;;16.13;6.60;;;;;;;23.66;51.81;102049.25;4970755;28;20112;-61
2022/08/31 11:38:53;;;;;;;12.25;6.95;;;;;;;23.81;50.53;102061.50;5051800;28;20031;-60
2022/08/31 11:41:42;;;;;;;12.32;6.18;;;;;;;23.82;50.15;102060.59;5051383;28;20060;-60
2022/08/31 11:44:28;;;;;;;9.77;5.90;;;;;;;23.85;50.72;102049.91;5051053;28;20500;-60
2022/08/31 11:47:26;;;;;;;13.13;6.78;;;;;;;23.94;50.95;102057.81;5052318;28;20632;-59
2022/08/31 11:49:55;;;;;;;11.50;6.32;;;;;;;24.01;50.31;102061.28;5032475;28;20041;-60